Time;durP1;ratioP1;P1;durP2;ratioP2;P2;SDS_P1;SDS_P2;PMS_P1;PMS_P2;Temp;Humidity;BMP_temperature;BMP_pressure;BME280_temperature;BME280_humidity;BME280_pressure;Samples;Min_cycle;Max_cycle;Signal;HPM_P1;HPM_P2
2023/02/19 00:02:56;;;;;;;18.55;16.63;;;;;;;3.68;100.00;101486.81;10074803;28;20504;-70
2023/02/19 00:07:52;;;;;;;20.50;15.68;;;;;;;3.77;100.00;101481.78;10079142;28;20059;-69
2023/02/19 00:12:49;;;;;;;17.88;13.43;;;;;;;3.62;100.00;101482.44;10082416;28;20503;-70
2023/02/19 00:17:47;;;;;;;14.13;12.55;;;;;;;3.79;100.00;101476.94;10072667;28;20051;-70
2023/02/19 00:22:43;;;;;;;17.20;15.60;;;;;;;3.78;100.00;101486.13;10082550;28;20047;-69
2023/02/19 00:27:40;;;;;;;16.17;14.48;;;;;;;3.77;100.00;101479.09;10081812;28;20070;-69
2023/02/19 00:32:36;;;;;;;14.68;12.85;;;;;;;3.63;100.00;101483.25;10077411;28;20078;-69
2023/02/19 00:37:32;;;;;;;12.65;11.32;;;;;;;3.49;100.00;101475.50;10080398;28;20051;-69
2023/02/19 00:42:29;;;;;;;13.98;12.60;;;;;;;3.55;100.00;101476.38;10080149;28;20046;-70
2023/02/19 00:47:25;;;;;;;14.40;13.00;;;;;;;3.56;100.00;101488.84;10080073;28;20134;-69
2023/02/19 00:52:22;;;;;;;16.98;14.38;;;;;;;3.50;100.00;101497.94;10079312;28;20055;-70
2023/02/19 00:57:18;;;;;;;16.60;14.90;;;;;;;3.59;100.00;101494.56;10075216;28;20079;-69
2023/02/19 01:02:14;;;;;;;18.52;14.82;;;;;;;3.65;100.00;101500.84;10079409;28;20046;-68
2023/02/19 01:07:11;;;;;;;19.92;15.43;;;;;;;3.55;100.00;101509.66;10074517;28;20566;-68
2023/02/19 01:12:07;;;;;;;17.58;14.55;;;;;;;3.56;100.00;101500.47;10077103;28;20125;-68
2023/02/19 01:17:04;;;;;;;17.63;13.85;;;;;;;3.47;100.00;101504.69;10077675;28;20457;-69
2023/02/19 01:22:00;;;;;;;17.63;13.65;;;;;;;3.58;100.00;101503.75;10068170;28;20054;-69
2023/02/19 01:26:57;;;;;;;21.13;17.17;;;;;;;3.62;100.00;101503.22;10070532;28;20166;-69
2023/02/19 01:31:53;;;;;;;17.88;16.23;;;;;;;3.65;100.00;101513.56;10079517;28;20050;-69
2023/02/19 01:36:50;;;;;;;20.20;15.88;;;;;;;3.51;100.00;101510.41;10078442;28;20101;-69
2023/02/19 01:41:46;;;;;;;16.65;15.35;;;;;;;3.40;100.00;101504.06;10076134;28;20140;-70
2023/02/19 01:46:50;;;;;;;17.75;15.40;;;;;;;3.44;100.00;101507.91;10081225;28;20043;-69
2023/02/19 01:51:52;;;;;;;15.98;14.48;;;;;;;3.31;100.00;101505.56;10066219;28;20060;-68
2023/02/19 01:56:49;;;;;;;18.27;16.52;;;;;;;3.17;100.00;101495.09;10067614;28;20082;-69
2023/02/19 02:01:45;;;;;;;14.85;13.55;;;;;;;2.93;100.00;101502.59;10070096;28;20146;-69
2023/02/19 02:06:48;;;;;;;22.35;16.00;;;;;;;2.94;100.00;101498.81;10077139;28;20109;-70
2023/02/19 02:11:50;;;;;;;13.52;12.43;;;;;;;2.91;100.00;101503.91;10067429;28;20047;-70
2023/02/19 02:17:02;;;;;;;;;;;;;;;2.89;100.00;101501.44;10067502;28;20074;-70
2023/02/19 02:22:18;;;;;;;13.43;12.32;;;;;;;2.93;100.00;101494.50;10079855;28;19930;-70
2023/02/19 02:27:37;;;;;;;15.15;13.57;;;;;;;3.10;100.00;101502.56;10078620;28;20126;-69
2023/02/19 02:32:52;;;;;;;16.60;15.07;;;;;;;3.04;100.00;101498.16;10069471;28;20047;-69
2023/02/19 02:37:50;;;;;;;16.77;15.20;;;;;;;2.91;100.00;101507.41;10076980;28;20084;-69
2023/02/19 02:42:46;;;;;;;20.38;15.25;;;;;;;3.00;100.00;101513.22;10084366;28;20082;-70
2023/02/19 02:47:55;;;;;;;16.55;15.02;;;;;;;2.91;100.00;101518.22;10088180;28;20062;-69
2023/02/19 02:58:18;;;;;;;18.30;16.38;;;;;;;3.02;100.00;101508.41;10074666;28;20055;-69
2023/02/19 03:03:20;;;;;;;16.15;14.77;;;;;;;2.82;100.00;101497.28;10085371;28;20130;-69
2023/02/19 03:08:39;;;;;;;18.05;16.30;;;;;;;2.93;100.00;101499.09;10078026;28;20476;-70
2023/02/19 03:29:30;;;;;;;17.73;16.38;;;;;;;2.97;100.00;101524.53;10090480;28;20058;-69
2023/02/19 03:34:40;;;;;;;18.92;17.27;;;;;;;2.99;100.00;101527.78;10104092;28;20043;-69
2023/02/19 03:39:43;;;;;;;17.55;16.35;;;;;;;3.00;100.00;101529.44;10094780;28;20126;-70
2023/02/19 03:45:09;;;;;;;18.48;16.70;;;;;;;3.05;100.00;101534.91;10093102;28;20047;-69
2023/02/19 03:50:26;;;;;;;18.33;16.73;;;;;;;3.06;100.00;101533.84;10096700;28;20138;-69
2023/02/19 03:55:41;;;;;;;19.23;17.10;;;;;;;2.94;100.00;101535.81;10074781;28;20052;-69
2023/02/19 04:00:46;;;;;;;18.88;17.30;;;;;;;3.03;100.00;101541.63;10086530;28;20460;-69
2023/02/19 04:05:57;;;;;;;17.65;16.20;;;;;;;2.99;100.00;101549.41;10092647;28;20134;-69
2023/02/19 04:10:54;;;;;;;17.50;16.10;;;;;;;2.77;100.00;101557.44;10079971;28;20070;-69
2023/02/19 04:15:53;;;;;;;19.15;16.92;;;;;;;2.79;100.00;101562.59;10086573;28;20128;-69
2023/02/19 04:20:51;;;;;;;17.48;15.68;;;;;;;2.72;100.00;101558.16;10079773;28;20049;-71
2023/02/19 04:25:52;;;;;;;18.02;16.42;;;;;;;2.77;100.00;101567.44;10082822;28;21327;-70
2023/02/19 04:30:48;;;;;;;19.38;17.60;;;;;;;2.67;100.00;101579.69;10086445;28;20066;-69
2023/02/19 04:35:45;;;;;;;16.35;15.05;;;;;;;2.56;100.00;101594.06;10078570;28;20051;-69
2023/02/19 04:40:41;;;;;;;15.60;14.07;;;;;;;2.55;100.00;101597.81;10081115;28;20505;-69
2023/02/19 04:45:38;;;;;;;15.75;14.23;;;;;;;2.51;100.00;101602.09;10081732;28;20138;-69
2023/02/19 04:50:38;;;;;;;18.08;14.73;;;;;;;2.49;100.00;101607.72;10090500;28;20046;-68
2023/02/19 04:55:38;;;;;;;14.75;13.43;;;;;;;2.39;100.00;101601.31;10080849;28;20047;-70
2023/02/19 05:00:34;;;;;;;19.52;14.75;;;;;;;2.48;100.00;101610.66;10081613;28;20047;-69
2023/02/19 05:05:31;;;;;;;16.05;14.63;;;;;;;2.36;100.00;101620.69;10078528;28;20479;-70
2023/02/19 05:10:27;;;;;;;15.10;13.70;;;;;;;2.30;100.00;101622.47;10075971;28;20576;-70
2023/02/19 05:15:24;;;;;;;15.77;13.77;;;;;;;2.25;100.00;101636.69;10079244;28;20043;-69
2023/02/19 05:20:21;;;;;;;15.80;13.95;;;;;;;2.16;100.00;101631.88;10066364;28;20530;-69
2023/02/19 05:25:18;;;;;;;15.07;13.23;;;;;;;2.12;100.00;101631.56;10072966;28;20079;-70
2023/02/19 05:30:14;;;;;;;14.82;13.38;;;;;;;2.07;100.00;101640.38;10078742;28;20059;-69
2023/02/19 05:35:11;;;;;;;16.27;14.63;;;;;;;2.02;100.00;101642.13;10068983;28;20094;-69
2023/02/19 05:40:07;;;;;;;16.88;15.13;;;;;;;1.97;100.00;101660.91;10080006;28;20082;-70
2023/02/19 05:45:04;;;;;;;18.27;16.65;;;;;;;1.94;100.00;101661.38;10079806;28;20831;-69
2023/02/19 05:50:01;;;;;;;17.48;15.88;;;;;;;1.82;100.00;101674.88;10077051;28;20421;-70
2023/02/19 05:54:57;;;;;;;17.35;16.00;;;;;;;1.91;100.00;101672.66;10076932;28;20054;-69
2023/02/19 05:59:55;;;;;;;18.77;17.02;;;;;;;1.88;100.00;101680.16;10071375;28;20070;-70
2023/02/19 06:04:51;;;;;;;19.73;17.92;;;;;;;1.85;100.00;101685.19;10072083;28;20072;-69
2023/02/19 06:09:50;;;;;;;21.70;19.30;;;;;;;1.82;100.00;101702.66;10076713;28;20050;-69
2023/02/19 06:14:47;;;;;;;18.75;16.83;;;;;;;1.72;100.00;101717.78;10084329;28;20047;-70
2023/02/19 06:19:43;;;;;;;17.63;16.13;;;;;;;1.69;100.00;101729.84;10071992;28;20617;-69
2023/02/19 06:24:40;;;;;;;18.40;16.67;;;;;;;1.65;100.00;101737.59;10074469;28;20126;-69
2023/02/19 06:29:37;;;;;;;18.35;16.70;;;;;;;1.66;100.00;101750.03;10072635;28;20111;-69
2023/02/19 06:34:34;;;;;;;16.30;14.68;;;;;;;1.62;100.00;101756.09;10082132;28;20699;-68
2023/02/19 06:39:30;;;;;;;17.98;13.32;;;;;;;1.67;100.00;101769.72;10079185;28;20051;-69
2023/02/19 06:44:27;;;;;;;15.13;13.25;;;;;;;1.63;100.00;101785.53;10085999;28;20079;-69
2023/02/19 06:49:23;;;;;;;18.92;14.73;;;;;;;1.64;100.00;101799.84;10074870;28;20051;-69
2023/02/19 06:54:19;;;;;;;16.23;14.55;;;;;;;1.61;100.00;101809.22;10072289;28;20075;-69
2023/02/19 06:59:16;;;;;;;15.27;13.90;;;;;;;1.59;100.00;101810.50;10072820;28;20177;-69
2023/02/19 07:04:13;;;;;;;14.70;13.40;;;;;;;1.59;100.00;101815.88;10066861;28;20593;-68
2023/02/19 07:09:10;;;;;;;16.33;12.90;;;;;;;1.62;100.00;101815.41;10057280;28;20469;-68
2023/02/19 07:14:12;;;;;;;14.32;13.10;;;;;;;1.62;100.00;101826.19;10067892;28;20505;-69
2023/02/19 07:19:09;;;;;;;;;;;;;;;1.63;100.00;101844.03;10067780;28;20147;-70
2023/02/19 07:24:05;;;;;;;20.27;14.38;;;;;;;1.66;100.00;101862.44;10067044;28;20229;-70
2023/02/19 07:29:03;;;;;;;15.93;14.55;;;;;;;1.73;100.00;101871.25;10062536;28;20113;-69
2023/02/19 07:33:59;;;;;;;15.65;14.13;;;;;;;1.83;100.00;101876.06;10069016;28;20071;-69
2023/02/19 07:38:57;;;;;;;19.58;14.52;;;;;;;1.91;100.00;101888.44;10061277;28;20098;-70
2023/02/19 07:43:53;;;;;;;15.65;14.25;;;;;;;1.96;100.00;101896.63;10070487;28;20050;-68
2023/02/19 07:48:50;;;;;;;15.30;14.05;;;;;;;2.01;100.00;101904.84;10069862;28;20043;-68
2023/02/19 07:53:51;;;;;;;17.10;15.43;;;;;;;2.03;100.00;101913.53;10076643;28;20444;-68
2023/02/19 07:58:47;;;;;;;18.23;16.45;;;;;;;1.95;100.00;101905.78;10075912;28;20062;-68
2023/02/19 08:03:44;;;;;;;17.80;16.10;;;;;;;1.93;100.00;101929.44;10078796;28;20047;-68
2023/02/19 08:08:41;;;;;;;18.33;15.18;;;;;;;1.88;100.00;101933.69;10081952;28;20047;-68
2023/02/19 08:13:37;;;;;;;16.60;14.90;;;;;;;1.91;100.00;101943.19;10073504;28;20040;-68
2023/02/19 08:18:34;;;;;;;16.50;14.82;;;;;;;1.96;100.00;101939.81;10061774;28;20163;-68
2023/02/19 08:23:30;;;;;;;15.30;13.70;;;;;;;2.03;100.00;101940.53;10072863;28;20047;-68
2023/02/19 08:28:28;;;;;;;17.50;15.75;;;;;;;2.10;100.00;101931.25;10070231;28;20081;-68
2023/02/19 08:33:25;;;;;;;17.00;13.80;;;;;;;2.25;100.00;101938.94;10068325;28;20781;-68
2023/02/19 08:38:21;;;;;;;14.88;13.30;;;;;;;2.30;100.00;101941.75;10070568;28;20062;-68
2023/02/19 08:43:18;;;;;;;14.23;12.82;;;;;;;2.37;100.00;101954.31;10068998;28;20102;-69
2023/02/19 08:48:14;;;;;;;15.23;13.82;;;;;;;2.47;100.00;101957.25;10071193;28;20576;-69
2023/02/19 08:53:11;;;;;;;14.98;13.50;;;;;;;2.58;100.00;101969.97;10069090;28;20126;-69
2023/02/19 08:58:09;;;;;;;15.23;13.65;;;;;;;2.74;100.00;101982.78;10057510;28;20078;-69
2023/02/19 09:03:06;;;;;;;12.88;11.68;;;;;;;2.92;100.00;101989.09;10060300;28;20051;-68
2023/02/19 09:08:02;;;;;;;13.98;12.68;;;;;;;3.09;100.00;102008.97;10063060;28;20082;-69
2023/02/19 09:12:59;;;;;;;17.42;13.25;;;;;;;3.27;100.00;102020.69;10061596;28;20075;-68
2023/02/19 09:17:56;;;;;;;14.23;12.75;;;;;;;3.37;100.00;102031.75;10052023;28;20138;-69
2023/02/19 09:22:57;;;;;;;17.20;11.40;;;;;;;3.53;100.00;102031.00;10062684;28;20405;-67
2023/02/19 09:27:54;;;;;;;11.98;10.75;;;;;;;3.62;100.00;102031.47;10062881;28;20466;-68
2023/02/19 09:32:51;;;;;;;14.77;10.30;;;;;;;3.76;100.00;102029.28;10059943;28;20285;-68
2023/02/19 09:37:48;;;;;;;11.60;7.38;;;;;;;3.73;100.00;102021.66;10060775;28;20043;-68
2023/02/19 09:42:45;;;;;;;15.82;8.90;;;;;;;4.11;100.00;102036.47;10057275;28;20521;-68
2023/02/19 09:47:41;;;;;;;10.15;6.57;;;;;;;4.19;100.00;102044.19;10057188;28;20047;-68
2023/02/19 09:53:02;;;;;;;15.40;7.70;;;;;;;4.42;100.00;102038.66;10067068;28;20042;-68
2023/02/19 09:58:02;;;;;;;13.13;6.20;;;;;;;4.41;100.00;102026.19;10054358;28;20082;-68
2023/02/19 10:03:05;;;;;;;9.25;5.63;;;;;;;4.61;100.00;102054.69;10065326;28;20506;-68
2023/02/19 10:08:07;;;;;;;13.15;4.32;;;;;;;4.62;100.00;102068.00;10057180;28;20045;-66
2023/02/19 10:13:22;;;;;;;7.22;4.20;;;;;;;5.01;100.00;102067.25;10076271;28;20105;-67
2023/02/19 10:18:40;;;;;;;11.27;4.40;;;;;;;5.31;100.00;102066.06;10043310;28;20059;-68
2023/02/19 10:23:39;;;;;;;13.32;5.97;;;;;;;5.57;100.00;102081.66;10055298;28;20062;-69
2023/02/19 10:28:36;;;;;;;9.00;4.22;;;;;;;5.89;100.00;102094.53;10054068;28;20051;-68
2023/02/19 10:33:47;;;;;;;10.23;4.53;;;;;;;5.62;100.00;102076.28;10061961;28;20541;-68
2023/02/19 10:38:46;;;;;;;6.85;3.85;;;;;;;5.63;100.00;102080.63;10071408;28;20487;-68
2023/02/19 10:43:51;;;;;;;6.72;4.00;;;;;;;5.73;100.00;102079.13;10072024;28;20138;-69
2023/02/19 10:48:54;;;;;;;10.60;4.55;;;;;;;5.62;100.00;102084.44;10067052;28;20047;-68
2023/02/19 10:54:05;;;;;;;7.72;4.03;;;;;;;5.87;100.00;102080.38;10073568;28;20147;-68
2023/02/19 10:59:16;;;;;;;6.95;4.20;;;;;;;5.94;100.00;102089.22;10086503;28;20074;-68
2023/02/19 11:04:16;;;;;;;9.82;4.10;;;;;;;6.30;100.00;102100.47;10064385;28;20417;-68
2023/02/19 11:09:29;;;;;;;6.32;3.75;;;;;;;6.20;100.00;102105.81;10063353;28;20620;-68
2023/02/19 11:14:29;;;;;;;8.43;4.45;;;;;;;6.14;100.00;102113.06;10062859;28;20047;-68
2023/02/19 11:19:46;;;;;;;6.28;4.40;;;;;;;6.15;100.00;102103.84;10068000;28;20775;-68
2023/02/19 11:24:48;;;;;;;7.50;3.97;;;;;;;6.13;100.00;102110.59;10070805;28;20135;-68
2023/02/19 11:29:45;;;;;;;4.20;3.80;;;;;;;6.04;100.00;102102.91;10080675;28;20054;-68
2023/02/19 11:34:43;;;;;;;6.18;3.88;;;;;;;6.52;100.00;102109.41;10074839;28;20046;-68
2023/02/19 11:39:42;;;;;;;6.90;3.78;;;;;;;6.86;100.00;102114.59;10066103;28;20066;-68
2023/02/19 11:44:38;;;;;;;13.00;4.35;;;;;;;6.90;100.00;102121.16;10073778;28;20154;-68
2023/02/19 11:50:07;;;;;;;6.15;4.78;;;;;;;6.73;100.00;102123.19;10070149;28;20492;-68
2023/02/19 11:55:24;;;;;;;7.72;4.60;;;;;;;7.27;100.00;102119.56;10066643;28;20047;-68
2023/02/19 12:00:26;;;;;;;4.50;4.10;;;;;;;7.43;100.00;102123.22;10077387;28;20051;-68
2023/02/19 12:06:00;;;;;;;5.80;4.03;;;;;;;7.46;100.00;102117.25;10075655;28;20074;-68
2023/02/19 12:11:08;;;;;;;13.30;4.75;;;;;;;7.28;100.00;102116.56;10072638;28;20981;-68
2023/02/19 12:16:14;;;;;;;4.95;4.45;;;;;;;7.25;100.00;102111.66;10072830;28;20532;-68
2023/02/19 12:21:29;;;;;;;7.90;3.90;;;;;;;7.96;100.00;102108.53;10078892;28;20047;-69
2023/02/19 12:26:28;;;;;;;6.07;4.43;;;;;;;8.10;100.00;102127.91;10084963;28;20605;-68
2023/02/19 12:31:37;;;;;;;6.95;4.05;;;;;;;7.80;100.00;102137.59;10077352;28;20087;-68
2023/02/19 12:36:58;;;;;;;6.18;3.72;;;;;;;7.82;100.00;102133.75;10075171;28;20051;-68
2023/02/19 12:42:21;;;;;;;7.25;4.22;;;;;;;8.83;100.00;102141.47;10073323;28;20034;-68
2023/02/19 12:47:23;;;;;;;5.27;4.53;;;;;;;9.76;100.00;102131.28;10063635;28;20051;-69
2023/02/19 12:52:27;;;;;;;8.13;5.03;;;;;;;10.15;100.00;102133.34;10077543;28;20137;-68
2023/02/19 12:57:29;;;;;;;8.88;4.57;;;;;;;10.95;100.00;102124.09;10072899;28;20059;-68
2023/02/19 13:02:37;;;;;;;6.18;4.35;;;;;;;11.18;100.00;102119.81;10068974;28;20139;-68
2023/02/19 13:08:15;;;;;;;6.97;4.38;;;;;;;9.54;100.00;102123.44;10086674;28;20523;-68
2023/02/19 13:13:24;;;;;;;7.25;4.93;;;;;;;8.10;100.00;102116.19;10088055;28;20544;-69
2023/02/19 13:18:40;;;;;;;14.27;5.05;;;;;;;8.81;100.00;102105.47;10076450;28;20840;-69
2023/02/19 13:23:58;;;;;;;8.32;4.35;;;;;;;9.62;100.00;102113.84;10072246;28;20525;-68
2023/02/19 13:29:30;;;;;;;6.00;4.68;;;;;;;9.10;100.00;102095.91;10071691;28;20083;-68
2023/02/19 13:34:55;;;;;;;10.88;4.47;;;;;;;7.94;100.00;102113.41;10060113;28;20051;-68
2023/02/19 13:39:54;;;;;;;5.45;4.03;;;;;;;7.84;100.00;102107.91;10069373;28;20094;-69
2023/02/19 13:44:52;;;;;;;10.70;5.25;;;;;;;8.71;100.00;102105.47;10078400;28;20073;-69
2023/02/19 13:50:05;;;;;;;9.02;5.13;;;;;;;9.04;100.00;102109.56;10081053;28;20074;-69
2023/02/19 13:55:41;;;;;;;8.82;5.60;;;;;;;9.18;100.00;102109.00;10065402;28;20047;-68
2023/02/19 14:00:50;;;;;;;9.85;4.30;;;;;;;9.17;100.00;102112.84;10054554;28;21331;-68
2023/02/19 14:06:05;;;;;;;7.45;4.70;;;;;;;9.57;100.00;102116.59;10058707;28;20046;-69
2023/02/19 14:11:01;;;;;;;6.13;3.72;;;;;;;9.87;100.00;102118.44;10062647;28;20043;-68
2023/02/19 14:15:58;;;;;;;6.25;4.28;;;;;;;9.60;100.00;102126.97;10063704;28;20044;-68
2023/02/19 14:21:26;;;;;;;8.32;4.60;;;;;;;9.22;100.00;102137.41;10073179;28;20051;-68
2023/02/19 14:26:29;;;;;;;5.60;4.65;;;;;;;9.09;100.00;102137.94;10062211;28;20066;-69
2023/02/19 14:31:27;;;;;;;5.40;4.57;;;;;;;8.83;100.00;102135.19;10082500;28;20077;-69
2023/02/19 14:36:42;;;;;;;6.07;4.28;;;;;;;9.83;100.00;102126.34;10054165;28;20048;-71
2023/02/19 14:41:44;;;;;;;6.53;3.80;;;;;;;10.10;100.00;102125.16;10056914;28;20058;-69
2023/02/19 14:46:52;;;;;;;5.75;3.05;;;;;;;9.44;100.00;102113.34;10065207;28;20047;-67
2023/02/19 14:52:00;;;;;;;7.70;4.90;;;;;;;8.62;100.00;102110.63;10074747;28;20083;-66
2023/02/19 14:56:58;;;;;;;6.95;3.85;;;;;;;9.96;100.00;102091.34;10063318;28;20055;-66
2023/02/19 15:01:55;;;;;;;6.80;3.42;;;;;;;8.29;100.00;102105.63;10071534;28;20071;-67
2023/02/19 15:06:55;;;;;;;6.18;3.47;;;;;;;7.70;100.00;102102.13;10072304;28;20554;-65
2023/02/19 15:11:53;;;;;;;6.63;4.30;;;;;;;7.27;100.00;102114.94;10071953;28;20066;-67
2023/02/19 15:16:57;;;;;;;10.90;3.60;;;;;;;7.19;100.00;102107.25;10057517;28;20056;-67
2023/02/19 15:21:54;;;;;;;4.80;3.53;;;;;;;7.05;100.00;102116.94;10065087;28;20043;-68
2023/02/19 15:26:53;;;;;;;10.55;3.65;;;;;;;6.79;100.00;102119.44;10072052;28;20051;-68
2023/02/19 15:31:54;;;;;;;5.57;3.30;;;;;;;6.62;100.00;102110.59;10073575;28;20564;-67
2023/02/19 15:36:56;;;;;;;6.78;4.00;;;;;;;6.63;100.00;102109.50;10060100;28;20071;-68
2023/02/19 15:41:59;;;;;;;8.27;3.60;;;;;;;6.51;100.00;102126.78;10072592;28;20043;-68
2023/02/19 15:47:01;;;;;;;11.00;6.47;;;;;;;6.26;100.00;102121.06;10062860;28;20462;-68
2023/02/19 15:52:06;;;;;;;7.68;3.67;;;;;;;6.15;100.00;102130.16;10062218;28;20495;-68
2023/02/19 15:57:08;;;;;;;8.18;4.82;;;;;;;6.08;100.00;102142.06;10078133;28;20130;-68
2023/02/19 16:02:11;;;;;;;7.50;4.07;;;;;;;5.98;100.00;102141.09;10072962;28;20047;-68
2023/02/19 16:07:25;;;;;;;7.35;3.45;;;;;;;5.95;100.00;102142.41;10067143;28;20992;-68
2023/02/19 16:12:23;;;;;;;7.70;3.72;;;;;;;5.94;100.00;102148.94;10066110;28;20082;-69
2023/02/19 16:17:26;;;;;;;6.85;3.50;;;;;;;5.83;100.00;102145.22;10067438;28;20043;-68
2023/02/19 16:22:27;;;;;;;6.72;3.70;;;;;;;5.90;100.00;102145.03;10067216;28;20110;-68
2023/02/19 16:27:34;;;;;;;6.28;3.97;;;;;;;5.67;100.00;102152.31;10071573;28;20505;-67
2023/02/19 16:32:30;;;;;;;6.32;4.85;;;;;;;5.64;100.00;102163.69;10068229;28;20430;-67
2023/02/19 16:37:54;;;;;;;10.30;5.05;;;;;;;5.52;100.00;102159.41;10057851;28;20075;-68
2023/02/19 16:42:52;;;;;;;8.48;5.00;;;;;;;5.58;100.00;102164.69;10053523;28;20041;-68
2023/02/19 16:47:49;;;;;;;13.50;6.18;;;;;;;5.56;100.00;102164.09;10069498;28;20153;-68
2023/02/19 16:53:04;;;;;;;11.77;6.15;;;;;;;5.50;100.00;102167.81;10076746;28;20428;-69
2023/02/19 16:58:01;;;;;;;9.73;5.25;;;;;;;5.28;100.00;102168.56;10074080;28;20054;-69
2023/02/19 17:03:01;;;;;;;13.70;5.60;;;;;;;5.26;100.00;102167.97;10062480;28;20516;-70
2023/02/19 17:07:58;;;;;;;8.60;4.70;;;;;;;5.16;100.00;102170.53;10056545;28;20047;-69
2023/02/19 17:12:55;;;;;;;6.13;5.00;;;;;;;5.11;100.00;102159.59;10062569;28;20050;-69
2023/02/19 17:17:51;;;;;;;7.07;4.63;;;;;;;5.11;100.00;102178.59;10064682;28;20645;-69
2023/02/19 17:22:48;;;;;;;9.68;4.78;;;;;;;5.09;100.00;102171.75;10073135;28;22116;-69
2023/02/19 17:27:44;;;;;;;5.68;4.30;;;;;;;5.07;100.00;102163.88;10069884;28;20074;-69
2023/02/19 17:32:41;;;;;;;8.88;5.30;;;;;;;5.08;100.00;102160.06;10066929;28;20059;-69
2023/02/19 17:37:44;;;;;;;9.48;5.53;;;;;;;5.18;100.00;102171.09;10420363;27;20618;-69
2023/02/19 17:42:40;;;;;;;10.73;4.63;;;;;;;5.23;100.00;102168.47;10376762;28;20043;-69
2023/02/19 17:47:37;;;;;;;10.07;5.00;;;;;;;5.23;100.00;102179.31;10375852;28;20558;-70
2023/02/19 17:52:33;;;;;;;13.43;5.28;;;;;;;5.25;100.00;102179.91;10370588;28;20052;-69
2023/02/19 17:57:32;;;;;;;6.80;4.43;;;;;;;5.23;100.00;102184.75;10354376;28;20036;-69
2023/02/19 18:02:29;;;;;;;7.80;4.82;;;;;;;5.30;100.00;102194.63;10390004;27;20082;-69
2023/02/19 18:07:26;;;;;;;7.63;5.07;;;;;;;5.27;100.00;102190.50;10411197;27;20035;-69
2023/02/19 18:12:24;;;;;;;9.93;5.00;;;;;;;5.27;100.00;102199.47;10410365;27;20051;-69
2023/02/19 18:17:22;;;;;;;5.47;4.80;;;;;;;5.26;100.00;102200.50;10417361;27;20130;-69
2023/02/19 18:22:19;;;;;;;8.23;5.10;;;;;;;5.19;100.00;102210.69;10402788;27;20050;-69
2023/02/19 18:27:22;;;;;;;14.57;5.72;;;;;;;5.26;100.00;102215.97;10412719;27;20557;-69
2023/02/19 18:32:20;;;;;;;7.45;4.80;;;;;;;5.16;100.00;102210.38;10394836;28;20044;-69
2023/02/19 18:37:17;;;;;;;6.72;4.60;;;;;;;5.10;100.00;102212.16;10407479;27;20071;-69
2023/02/19 18:42:15;;;;;;;11.07;5.53;;;;;;;5.07;100.00;102199.13;10394442;27;20454;-69
2023/02/19 18:47:11;;;;;;;8.90;5.65;;;;;;;5.10;100.00;102201.31;10382715;28;20074;-70
2023/02/19 18:52:08;;;;;;;13.20;5.22;;;;;;;5.04;100.00;102191.47;10373481;28;20062;-69
2023/02/19 18:57:04;;;;;;;9.98;5.00;;;;;;;4.97;100.00;102190.81;10359974;28;20449;-69
2023/02/19 19:02:03;;;;;;;5.85;4.40;;;;;;;5.05;100.00;102187.69;10356325;27;20134;-69
2023/02/19 19:07:00;;;;;;;8.80;4.50;;;;;;;5.01;100.00;102181.09;10380387;27;20521;-69
2023/02/19 19:11:57;;;;;;;6.00;4.72;;;;;;;5.01;100.00;102181.09;10380582;28;20067;-69
2023/02/19 19:16:53;;;;;;;10.75;5.18;;;;;;;5.01;100.00;102164.84;10372166;28;20130;-69
2023/02/19 19:21:53;;;;;;;9.32;5.57;;;;;;;4.99;100.00;102161.53;10374116;27;20039;-69
2023/02/19 19:26:51;;;;;;;8.77;5.25;;;;;;;4.89;100.00;102166.81;10386496;28;20040;-69
2023/02/19 19:31:48;;;;;;;14.45;5.10;;;;;;;4.74;100.00;102160.03;10372040;28;20131;-68
2023/02/19 19:36:45;;;;;;;11.18;5.10;;;;;;;4.68;100.00;102169.13;10342216;28;20499;-69
2023/02/19 19:41:42;;;;;;;7.10;4.55;;;;;;;4.57;100.00;102170.84;10351487;28;20044;-69
2023/02/19 19:46:44;;;;;;;9.23;5.40;;;;;;;4.39;100.00;102165.63;10368730;28;20412;-69
2023/02/19 19:51:40;;;;;;;9.32;4.95;;;;;;;4.34;100.00;102170.91;10339523;28;20090;-68
2023/02/19 19:56:42;;;;;;;7.18;5.53;;;;;;;4.29;100.00;102171.63;10337722;28;20159;-69
2023/02/19 20:01:45;;;;;;;8.40;5.40;;;;;;;4.22;100.00;102182.63;10362072;28;20074;-68
2023/02/19 20:06:42;;;;;;;9.32;5.60;;;;;;;4.15;100.00;102186.50;10381344;27;20044;-69
2023/02/19 20:11:50;;;;;;;11.82;5.35;;;;;;;4.10;100.00;102191.81;10377427;28;20048;-68
2023/02/19 20:16:48;;;;;;;13.50;5.25;;;;;;;4.08;100.00;102180.41;10383886;28;20157;-69
2023/02/19 20:21:47;;;;;;;7.75;5.70;;;;;;;4.03;100.00;102174.88;10369788;28;20051;-69
2023/02/19 20:26:44;;;;;;;12.57;6.28;;;;;;;3.97;100.00;102166.66;10371641;27;20134;-69
2023/02/19 20:31:47;;;;;;;11.07;5.60;;;;;;;3.99;100.00;102153.72;10376725;28;20067;-68
2023/02/19 20:36:46;;;;;;;8.93;5.53;;;;;;;3.95;100.00;102157.94;10356607;28;20131;-68
2023/02/19 20:41:49;;;;;;;8.02;5.50;;;;;;;3.96;100.00;102159.59;10345786;28;20144;-69
2023/02/19 20:46:48;;;;;;;10.00;5.93;;;;;;;3.94;100.00;102156.28;10339437;28;20048;-69
2023/02/19 20:51:47;;;;;;;10.43;6.18;;;;;;;4.04;100.00;102149.44;10353868;27;20043;-70
2023/02/19 20:56:45;;;;;;;9.07;5.72;;;;;;;4.04;100.00;102146.75;10361368;27;20421;-69
2023/02/19 21:01:42;;;;;;;11.85;6.85;;;;;;;4.04;100.00;102154.84;10358824;28;20126;-68
2023/02/19 21:06:40;;;;;;;7.82;5.28;;;;;;;3.97;100.00;102155.84;10355611;28;20095;-70
2023/02/19 21:11:36;;;;;;;7.32;5.50;;;;;;;3.99;100.00;102142.88;10344549;28;20412;-69
2023/02/19 21:16:33;;;;;;;8.70;5.43;;;;;;;3.92;100.00;102142.19;10351103;28;20127;-69
2023/02/19 21:21:30;;;;;;;10.25;6.20;;;;;;;3.91;100.00;102140.53;10366290;28;20547;-68
2023/02/19 21:26:35;;;;;;;10.38;5.15;;;;;;;3.92;100.00;102141.34;10341043;28;20051;-69
2023/02/19 21:31:41;;;;;;;9.68;5.13;;;;;;;4.00;100.00;102149.94;10349997;28;20089;-68
2023/02/19 21:36:38;;;;;;;11.18;4.85;;;;;;;4.02;100.00;102146.19;10384169;28;20048;-69
2023/02/19 21:41:35;;;;;;;8.02;4.63;;;;;;;4.06;100.00;102136.50;10368611;28;20430;-69
2023/02/19 21:46:34;;;;;;;15.05;5.20;;;;;;;4.05;100.00;102149.22;10349634;28;20046;-68
2023/02/19 21:51:38;;;;;;;9.35;4.28;;;;;;;4.06;100.00;102147.31;10376219;28;20127;-68
2023/02/19 21:56:35;;;;;;;5.80;5.05;;;;;;;4.01;100.00;102126.38;10366677;28;20397;-68
2023/02/19 22:01:37;;;;;;;11.63;5.03;;;;;;;3.91;100.00;102113.47;10328044;28;20047;-68
2023/02/19 22:06:34;;;;;;;7.55;4.70;;;;;;;3.91;100.00;102108.06;10348383;28;20123;-68
2023/02/19 22:11:30;;;;;;;8.70;5.30;;;;;;;3.93;100.00;102089.72;10374116;28;20050;-68
2023/02/19 22:16:27;;;;;;;8.95;4.85;;;;;;;4.04;100.00;102107.00;10374627;28;20540;-68
2023/02/19 22:21:26;;;;;;;9.15;5.28;;;;;;;4.03;100.00;102102.63;10382373;28;20082;-68
2023/02/19 22:26:32;;;;;;;8.82;4.78;;;;;;;3.99;100.00;102099.59;10379656;28;20077;-68
2023/02/19 22:31:30;;;;;;;8.27;4.80;;;;;;;4.02;100.00;102102.88;10374208;28;20590;-68
2023/02/19 22:36:32;;;;;;;13.20;5.75;;;;;;;3.99;100.00;102102.28;10375976;28;20086;-68
2023/02/19 22:41:28;;;;;;;9.15;5.20;;;;;;;4.03;100.00;102094.50;10382684;28;20066;-68
2023/02/19 22:46:28;;;;;;;7.75;4.35;;;;;;;4.05;100.00;102105.09;10385907;27;20139;-69
2023/02/19 22:51:25;;;;;;;12.23;5.10;;;;;;;4.08;100.00;102097.31;10368986;28;20048;-69
2023/02/19 22:56:24;;;;;;;7.85;4.53;;;;;;;4.13;100.00;102093.88;10350254;28;20051;-69
2023/02/19 23:01:20;;;;;;;9.60;5.00;;;;;;;4.16;100.00;102093.41;10356025;28;20040;-68
2023/02/19 23:06:26;;;;;;;9.80;5.07;;;;;;;4.19;100.00;102087.50;10373159;28;20051;-70
2023/02/19 23:11:28;;;;;;;7.57;4.30;;;;;;;4.14;100.00;102100.94;10371274;28;20043;-68